الصفحة الرئيسية
METAR-TAF:

METAR-TAF

مطار :

قاعدة رمادة الجوية

رمادة, تونس

دائرة عرض: 32-19N, خط طول: 010-24E, ارتفاع: 300 متر

مراقبة الطقس الحالي

تاريخ ووقت الإصدار 30 دقيقة قبل الساعة 17:00UTC
ريح 10 عقدة من الغرب/الشمال الغربي, الاتجاه يتراوح بين الغرب و الشمال/الشمال الغربي
درجة الحرارة 24°درجة مئوية
الرطوبة 31%
ضغط 1010 hPa
الرؤية: 8000 متر

METAR: DTTD 161700Z 30010KT 270V340 8000 NSC 24/06 Q1010

زمن: 18:30 (17:30 UTC)


TAF: مفقودة

أرصاد الطقس والتوقعات من أكثر من 4000 مطار (تقارير الطقس للمطار METAR والتنبؤ بالطقس بالمطارTAF).

المحطات المتاحة هي النقط الصفراء والحمراء على الخريطة.

حرك المؤشر فوق النقطة لمعرفة اسم المحطة.

ثم انقر لمعرفة أرصاد وتوقعات الطقس.

لتغيير الخارطة: اضغط على الأزرار الخضراء مع رمز الصليب الأسود للتكبير. على الزر الأخضر مع شرطة للتصغير، أو على الأسهم الخضراء للخرائط المجاورة.


METAR-TAF: